Schedule Details

Flight Number: SQS34
Departure: Minangkabau International (WIEE) at 09:00
Arrival: Sultan Syarif Kasim II International (WIBB) at 09.30

$depweather=Schedulesdata::GetWeather($schedule->depicao); $arrweather=Schedulesdata::GetWeather($schedule->arricao); $depsun=" Sunrise: ".date_sunrise(time(),SUNFUNCS_RET_STRING,$schedule->deplat,$schedule->deplng,90,0)." Sunset: ".date_sunset(time(),SUNFUNCS_RET_STRING,$schedule->deplat,$schedule->deplng,90,0)." (UTC)"; $arrsun=" Sunrise: ".date_sunrise(time(),SUNFUNCS_RET_STRING,$schedule->arrlat,$schedule->arrlng,90,0)." Sunset: ".date_sunset(time(),SUNFUNCS_RET_STRING,$schedule->arrlat,$schedule->arrlng,90,0)." (UTC)"; Weather Information
Current METAR information for WIEE : WIEE 181000Z 13005KT 5000 -RA BKN019 24/24 Q1009
Current METAR information for WIBB : WIBB 181000Z 18010KT 9999 FEW015 30/23 Q1006 NOSIG

Schedule Frequency




TAF:

Route Map